Time;durP1;ratioP1;P1;durP2;ratioP2;P2;SDS_P1;SDS_P2;PMS_P1;PMS_P2;Temp;Humidity;BMP_temperature;BMP_pressure;BME280_temperature;BME280_humidity;BME280_pressure;Samples;Min_cycle;Max_cycle;Signal;HPM_P1;HPM_P2
2023/01/23 00:01:31;;;;;;;34.03;15.78;;;;;;;0.89;100.00;102027.22;1698636;84;25620;-47
2023/01/23 00:04:00;;;;;;;32.50;16.23;;;;;;;0.91;100.00;102030.50;1698691;84;25451;-45
2023/01/23 00:06:29;;;;;;;30.72;15.90;;;;;;;0.92;100.00;102040.67;1698700;84;27374;-45
2023/01/23 00:08:58;;;;;;;32.63;15.40;;;;;;;0.93;100.00;102043.10;1698700;84;26327;-45
2023/01/23 00:11:29;;;;;;;31.33;15.45;;;;;;;0.93;100.00;102037.77;1698743;84;25440;-46
2023/01/23 00:13:59;;;;;;;32.58;15.93;;;;;;;0.94;100.00;102038.61;1698657;84;25616;-46
2023/01/23 00:16:29;;;;;;;;;;;;;;;0.94;100.00;102037.28;1701126;84;25561;-46
2023/01/23 00:18:58;;;;;;;32.23;15.30;;;;;;;0.95;100.00;102038.09;1697396;84;27973;-46
2023/01/23 00:21:30;;;;;;;31.90;15.90;;;;;;;0.93;100.00;102049.77;1697386;84;25622;-50
2023/01/23 00:24:00;;;;;;;31.00;16.35;;;;;;;0.94;100.00;102051.94;1671058;84;25473;-48
2023/01/23 00:26:34;;;;;;;31.75;15.43;;;;;;;0.93;100.00;102048.43;1697350;84;25647;-46
2023/01/23 00:29:03;;;;;;;32.40;15.70;;;;;;;0.95;100.00;102051.42;1697429;84;25460;-47
2023/01/23 00:31:39;;;;;;;30.27;16.00;;;;;;;0.93;100.00;102052.42;1697401;84;27310;-46
2023/01/23 00:34:11;;;;;;;36.13;15.30;;;;;;;0.95;100.00;102050.08;1697204;84;25685;-47
2023/01/23 00:36:43;;;;;;;32.75;16.57;;;;;;;0.95;100.00;102048.23;1697328;84;25635;-47
2023/01/23 00:39:19;;;;;;;35.28;15.70;;;;;;;0.96;100.00;102050.41;1697332;84;25632;-46
2023/01/23 00:41:49;;;;;;;37.17;16.42;;;;;;;0.95;100.00;102055.41;1697362;84;25553;-46
2023/01/23 00:44:17;;;;;;;32.30;14.93;;;;;;;0.95;100.00;102052.23;1697154;84;27328;-46
2023/01/23 00:46:45;;;;;;;32.08;15.78;;;;;;;0.95;100.00;102058.08;1697150;84;25527;-45
2023/01/23 00:49:12;;;;;;;38.13;15.55;;;;;;;0.95;100.00;102058.89;1671071;84;25602;-45
2023/01/23 00:51:38;;;;;;;37.42;15.35;;;;;;;0.95;100.00;102061.56;1670632;84;26143;-45
2023/01/23 00:54:07;;;;;;;31.10;15.80;;;;;;;0.95;100.00;102059.41;1670388;84;25644;-45
2023/01/23 00:56:33;;;;;;;31.57;15.75;;;;;;;0.96;100.00;102055.73;1697364;84;27745;-46
2023/01/23 00:59:00;;;;;;;36.08;16.17;;;;;;;0.95;100.00;102056.75;1670357;84;25660;-44
2023/01/23 01:01:30;;;;;;;36.77;16.23;;;;;;;0.95;100.00;102053.56;1697172;84;25577;-46
2023/01/23 01:03:59;;;;;;;33.60;15.70;;;;;;;0.95;100.00;102046.90;1697278;84;25719;-50
2023/01/23 01:06:28;;;;;;;29.85;14.55;;;;;;;0.92;100.00;102045.48;1671181;84;25847;-46
2023/01/23 01:08:58;;;;;;;30.95;15.45;;;;;;;0.93;100.00;102047.63;1697395;84;27332;-44
2023/01/23 01:11:27;;;;;;;38.45;15.23;;;;;;;0.92;100.00;102046.00;1697161;84;25573;-45
2023/01/23 01:13:55;;;;;;;34.85;15.90;;;;;;;0.92;100.00;102052.66;1697372;84;25552;-46
2023/01/23 01:16:23;;;;;;;33.15;14.58;;;;;;;0.90;100.00;102050.19;1697204;84;25603;-47
2023/01/23 01:18:51;;;;;;;31.82;15.10;;;;;;;0.90;100.00;102049.34;1697915;84;25371;-46
2023/01/23 01:21:20;;;;;;;32.60;15.30;;;;;;;0.91;100.00;102053.67;1698572;84;27399;-44
2023/01/23 01:23:46;;;;;;;33.58;16.25;;;;;;;0.89;100.00;102056.53;1698498;84;25456;-45
2023/01/23 01:26:12;;;;;;;30.77;15.25;;;;;;;0.87;100.00;102059.91;1698503;84;25407;-46
2023/01/23 01:28:41;;;;;;;33.02;15.00;;;;;;;0.87;100.00;102059.91;1675569;84;25595;-45
2023/01/23 01:31:12;;;;;;;29.45;14.85;;;;;;;0.85;100.00;102065.11;1698664;84;25609;-45
2023/01/23 01:33:42;;;;;;;33.80;14.20;;;;;;;0.86;100.00;102062.77;1698532;84;27333;-46
2023/01/23 01:36:19;;;;;;;31.85;15.08;;;;;;;0.87;100.00;102066.58;1698423;84;25692;-44
2023/01/23 01:38:48;;;;;;;31.82;14.80;;;;;;;0.87;100.00;102071.91;1698549;84;25538;-45
2023/01/23 01:41:18;;;;;;;37.05;16.12;;;;;;;0.86;100.00;102075.58;1698487;84;25727;-44
2023/01/23 01:51:56;;;;;;;30.92;13.95;;;;;;;0.88;100.00;102084.70;1698330;84;25693;-43
2023/01/23 01:54:37;;;;;;;32.48;15.63;;;;;;;0.86;100.00;102086.75;1686109;84;25548;-48
2023/01/23 01:57:38;;;;;;;31.17;14.95;;;;;;;0.86;100.00;102088.09;1676130;84;27805;-45
2023/01/23 02:00:18;;;;;;;35.45;15.65;;;;;;;0.85;100.00;102086.42;1698452;84;25391;-45
2023/01/23 02:03:00;;;;;;;36.93;14.98;;;;;;;0.84;100.00;102083.47;1676321;84;27930;-45
2023/01/23 02:05:35;;;;;;;35.63;14.83;;;;;;;0.83;100.00;102087.14;1698448;84;25479;-45
2023/01/23 02:08:19;;;;;;;31.80;14.85;;;;;;;0.85;100.00;102097.09;1698442;84;25529;-44
2023/01/23 02:10:47;;;;;;;33.10;14.78;;;;;;;0.84;100.00;102097.61;1698487;84;25620;-45
2023/01/23 02:13:38;;;;;;;41.48;15.32;;;;;;;0.85;100.00;102102.41;1698441;84;25462;-45
2023/01/23 02:16:13;;;;;;;37.58;17.80;;;;;;;0.86;100.00;102101.41;1675752;84;28284;-46
2023/01/23 02:18:46;;;;;;;32.75;15.38;;;;;;;0.85;100.00;102108.59;1697792;84;25623;-45
2023/01/23 02:21:17;;;;;;;34.98;15.28;;;;;;;0.86;100.00;102113.39;1697284;84;25491;-45
2023/01/23 02:24:04;;;;;;;36.53;15.63;;;;;;;0.86;100.00;102115.54;1696935;84;25690;-45
2023/01/23 02:26:37;;;;;;;39.53;16.35;;;;;;;0.87;100.00;102122.52;1696584;84;25441;-45
2023/01/23 02:29:07;;;;;;;32.42;15.08;;;;;;;0.88;100.00;102119.34;1670207;84;28066;-45
2023/01/23 02:31:36;;;;;;;31.45;14.25;;;;;;;0.90;100.00;102118.63;1697270;84;25427;-45
2023/01/23 02:34:04;;;;;;;34.18;16.50;;;;;;;0.90;100.00;102111.48;1671445;84;25511;-46
2023/01/23 02:36:34;;;;;;;34.27;15.98;;;;;;;0.92;100.00;102108.61;1697297;84;25676;-45
2023/01/23 02:39:12;;;;;;;38.70;16.30;;;;;;;0.93;100.00;102111.56;1697296;84;25568;-47
2023/01/23 02:41:44;;;;;;;38.65;15.45;;;;;;;0.92;100.00;102117.42;1670779;84;27111;-50
2023/01/23 02:44:30;;;;;;;36.55;15.53;;;;;;;0.93;100.00;102122.23;1697384;84;25435;-47
2023/01/23 02:47:11;;;;;;;35.65;15.83;;;;;;;0.94;100.00;102123.88;1697429;84;25550;-46
2023/01/23 02:49:36;;;;;;;42.17;16.02;;;;;;;0.93;100.00;102120.38;1697253;84;26237;-45
2023/01/23 02:52:02;;;;;;;40.25;16.05;;;;;;;0.95;100.00;102122.84;1697392;84;25410;-44
2023/01/23 02:54:30;;;;;;;42.08;16.48;;;;;;;0.95;100.00;102120.70;1697332;84;29475;-45
2023/01/23 02:56:57;;;;;;;37.67;15.58;;;;;;;0.96;100.00;102125.02;1671098;84;25649;-44
2023/01/23 03:02:09;;;;;;;35.55;15.15;;;;;;;0.97;100.00;102121.31;1697319;84;25612;-45
2023/01/23 03:04:35;;;;;;;35.85;15.93;;;;;;;0.97;100.00;102124.83;1671271;84;25672;-47
2023/01/23 03:07:02;;;;;;;33.42;15.20;;;;;;;0.96;100.00;102121.84;1697330;84;27354;-45
2023/01/23 03:09:29;;;;;;;40.65;15.90;;;;;;;0.97;100.00;102131.98;1697279;84;25464;-46
2023/01/23 03:11:55;;;;;;;40.30;16.25;;;;;;;0.96;100.00;102131.16;1697353;84;25389;-47
2023/01/23 03:14:23;;;;;;;38.98;16.67;;;;;;;0.97;100.00;102128.82;1697325;84;34981;-46
2023/01/23 03:16:51;;;;;;;36.10;15.90;;;;;;;0.97;100.00;102129.31;1697370;84;25549;-45
2023/01/23 03:19:22;;;;;;;33.75;16.15;;;;;;;0.96;100.00;102125.02;1699295;84;27318;-46
2023/01/23 03:21:48;;;;;;;41.58;15.50;;;;;;;0.96;100.00;102124.50;1678685;84;25593;-46
2023/01/23 03:24:15;;;;;;;40.20;16.02;;;;;;;0.96;100.00;102118.36;1701192;84;25406;-45
2023/01/23 03:26:44;;;;;;;36.75;15.68;;;;;;;0.96;100.00;102119.17;1701073;84;25545;-45
2023/01/23 03:32:08;;;;;;;36.05;15.40;;;;;;;0.92;100.00;102125.41;1701143;84;27489;-47
2023/01/23 03:34:35;;;;;;;35.45;16.17;;;;;;;0.92;100.00;102130.74;1701020;84;25633;-47
2023/01/23 03:37:02;;;;;;;34.75;15.53;;;;;;;0.92;100.00;102130.74;1701083;84;25577;-45
2023/01/23 03:42:03;;;;;;;42.53;19.07;;;;;;;0.93;100.00;102126.23;1633650;87;25653;-47
2023/01/23 03:44:30;;;;;;;41.48;17.65;;;;;;;0.93;100.00;102132.89;1611896;87;27362;-49
2023/01/23 03:46:56;;;;;;;38.08;15.10;;;;;;;0.91;100.00;102131.75;1633576;87;25488;-44
2023/01/23 03:49:22;;;;;;;35.73;15.43;;;;;;;0.91;100.00;102131.75;1633637;87;25544;-48
2023/01/23 03:51:48;;;;;;;46.13;17.73;;;;;;;0.90;100.00;102136.78;1633592;87;27783;-48
2023/01/23 03:54:14;;;;;;;41.65;16.20;;;;;;;0.90;100.00;102143.45;1633696;87;32461;-46
2023/01/23 03:56:42;;;;;;;40.33;16.77;;;;;;;0.90;100.00;102136.78;1633661;87;28295;-44
2023/01/23 03:59:09;;;;;;;36.70;15.98;;;;;;;0.90;100.00;102147.45;1633507;87;25513;-46
2023/01/23 04:01:36;;;;;;;41.60;16.95;;;;;;;0.90;100.00;102150.59;1633660;87;25798;-45
2023/01/23 04:04:03;;;;;;;37.95;15.98;;;;;;;0.89;100.00;102153.78;1633610;87;25728;-45
2023/01/23 04:06:31;;;;;;;42.33;16.35;;;;;;;0.89;100.00;102146.31;1633631;87;25630;-45
2023/01/23 04:08:57;;;;;;;36.70;16.15;;;;;;;0.90;100.00;102145.27;1633636;87;27318;-45
2023/01/23 04:11:25;;;;;;;41.08;16.07;;;;;;;0.88;100.00;102142.80;1633507;87;25585;-45
2023/01/23 04:13:53;;;;;;;36.80;17.40;;;;;;;0.88;100.00;102141.98;1607681;87;25634;-45
2023/01/23 04:16:21;;;;;;;40.43;17.02;;;;;;;0.89;100.00;102151.64;1633594;87;25621;-44
2023/01/23 04:18:50;;;;;;;39.38;15.53;;;;;;;0.88;100.00;102157.45;1654641;84;25635;-45
2023/01/23 04:21:17;;;;;;;40.85;17.77;;;;;;;0.90;100.00;102162.09;1701039;84;27923;-45
2023/01/23 04:23:44;;;;;;;43.38;16.27;;;;;;;0.90;100.00;102159.44;1701049;84;25387;-45
2023/01/23 04:26:10;;;;;;;38.55;17.87;;;;;;;0.89;100.00;102152.45;1701072;83;25601;-48
2023/01/23 04:28:37;;;;;;;37.67;16.57;;;;;;;0.89;100.00;102156.45;1701008;84;25620;-48
2023/01/23 04:31:04;;;;;;;37.33;16.87;;;;;;;0.89;100.00;102156.45;1701054;84;25448;-47
2023/01/23 04:33:30;;;;;;;37.60;16.25;;;;;;;0.89;100.00;102159.11;1701046;84;27440;-48
2023/01/23 04:36:02;;;;;;;39.10;16.85;;;;;;;0.88;100.00;102160.12;1700941;84;25544;-48
2023/01/23 04:38:30;;;;;;;46.68;18.23;;;;;;;0.88;100.00;102170.78;1701002;84;25480;-47
2023/01/23 04:40:57;;;;;;;37.93;16.20;;;;;;;0.89;100.00;102171.63;1701056;84;25635;-46
2023/01/23 04:43:24;;;;;;;42.83;17.77;;;;;;;0.89;100.00;102172.95;1701125;84;25645;-47
2023/01/23 04:45:53;;;;;;;34.38;16.17;;;;;;;0.90;100.00;102178.58;1701054;84;27411;-47
2023/01/23 04:48:19;;;;;;;41.35;17.57;;;;;;;0.90;100.00;102179.91;1701116;84;25656;-46
2023/01/23 04:50:45;;;;;;;44.13;18.23;;;;;;;0.90;100.00;102178.58;1701143;84;25467;-45
2023/01/23 04:53:12;;;;;;;41.33;17.85;;;;;;;0.90;100.00;102175.91;1678335;84;26019;-45
2023/01/23 04:55:39;;;;;;;42.60;18.00;;;;;;;0.91;100.00;102181.56;1701054;84;25616;-46
2023/01/23 04:58:05;;;;;;;43.75;16.90;;;;;;;0.91;100.00;102182.90;1701013;84;27370;-46
2023/01/23 05:00:32;;;;;;;40.65;17.50;;;;;;;0.92;100.00;102179.22;1678739;84;25808;-46
2023/01/23 05:02:58;;;;;;;41.63;17.35;;;;;;;0.91;100.00;102175.72;1701060;84;25590;-45
2023/01/23 05:05:25;;;;;;;40.67;17.27;;;;;;;0.91;100.00;102179.71;1701000;84;27834;-47
2023/01/23 05:07:51;;;;;;;47.30;18.95;;;;;;;0.90;100.00;102177.24;1701051;84;25461;-49
2023/01/23 05:10:18;;;;;;;37.88;17.95;;;;;;;0.90;100.00;102186.57;1701061;83;27441;-46
2023/01/23 05:12:44;;;;;;;39.85;18.02;;;;;;;0.91;100.00;102189.56;1700958;84;25487;-46
2023/01/23 05:15:11;;;;;;;48.87;19.65;;;;;;;0.89;100.00;102192.94;1701027;84;25468;-47
2023/01/23 05:17:37;;;;;;;40.00;18.10;;;;;;;0.88;100.00;102195.28;1700979;84;26564;-47
2023/01/23 05:20:07;;;;;;;43.68;18.02;;;;;;;0.87;100.00;102197.13;1698702;84;25387;-47
2023/01/23 05:22:33;;;;;;;54.08;20.92;;;;;;;0.88;100.00;102196.61;1693708;84;27358;-48
2023/01/23 05:25:00;;;;;;;39.65;17.62;;;;;;;0.87;100.00;102190.95;1697248;84;25461;-47
2023/01/23 05:27:26;;;;;;;42.17;16.93;;;;;;;0.86;100.00;102196.80;1697328;84;25594;-46
2023/01/23 05:29:52;;;;;;;47.43;19.23;;;;;;;0.88;100.00;102195.28;1671156;84;25608;-46
2023/01/23 05:32:19;;;;;;;48.60;19.10;;;;;;;0.87;100.00;102194.47;1697293;84;25660;-47
2023/01/23 05:34:45;;;;;;;43.83;18.23;;;;;;;0.88;100.00;102193.94;1697294;84;27320;-47
2023/01/23 05:37:11;;;;;;;45.00;17.73;;;;;;;0.88;100.00;102189.95;1697149;84;32288;-45
2023/01/23 05:39:37;;;;;;;41.73;17.62;;;;;;;0.88;100.00;102189.95;1697211;84;25524;-45
2023/01/23 05:42:05;;;;;;;39.05;18.80;;;;;;;0.86;100.00;102193.33;1697169;84;25684;-46
2023/01/23 05:44:32;;;;;;;43.10;18.07;;;;;;;0.87;100.00;102207.78;1697323;84;25679;-45
2023/01/23 05:46:59;;;;;;;42.53;18.20;;;;;;;0.86;100.00;102204.80;1697358;84;27326;-45
2023/01/23 05:49:25;;;;;;;40.30;17.80;;;;;;;0.86;100.00;102211.98;1697163;84;25631;-45
2023/01/23 05:51:51;;;;;;;38.17;18.35;;;;;;;0.86;100.00;102211.45;1697230;84;25594;-46
2023/01/23 05:54:17;;;;;;;43.60;18.92;;;;;;;0.88;100.00;102220.59;1697308;84;25523;-47
2023/01/23 05:56:43;;;;;;;42.38;19.02;;;;;;;0.86;100.00;102223.97;1697332;84;25590;-45
2023/01/23 05:59:11;;;;;;;43.78;19.70;;;;;;;0.87;100.00;102226.44;1697202;84;29529;-46
2023/01/23 06:01:37;;;;;;;44.35;18.67;;;;;;;0.86;100.00;102224.78;1697117;84;25599;-46
2023/01/23 06:04:04;;;;;;;43.33;19.10;;;;;;;0.86;100.00;102226.63;1697201;84;25685;-47
2023/01/23 06:06:30;;;;;;;48.05;21.00;;;;;;;0.86;100.00;102228.77;1697198;84;25596;-47
2023/01/23 06:08:59;;;;;;;46.90;20.05;;;;;;;0.86;100.00;102234.11;1697216;84;25634;-45
2023/01/23 06:11:26;;;;;;;45.70;19.87;;;;;;;0.87;100.00;102240.25;1697476;84;27266;-46
2023/01/23 06:13:52;;;;;;;43.28;18.37;;;;;;;0.87;100.00;102240.25;1697147;84;25834;-46
2023/01/23 06:16:18;;;;;;;41.48;18.85;;;;;;;0.87;100.00;102246.42;1697171;84;25653;-45
2023/01/23 06:18:44;;;;;;;49.27;20.02;;;;;;;0.88;100.00;102251.23;1697175;84;25667;-46
2023/01/23 06:21:10;;;;;;;45.25;20.60;;;;;;;0.87;100.00;102249.58;1698286;84;25403;-44
2023/01/23 06:23:36;;;;;;;42.55;20.30;;;;;;;0.89;100.00;102258.22;1698487;84;27226;-45
2023/01/23 06:26:04;;;;;;;43.00;18.52;;;;;;;0.86;100.00;102252.75;1698403;84;25814;-45
2023/01/23 06:28:30;;;;;;;44.35;18.15;;;;;;;0.87;100.00;102255.75;1698529;84;25201;-45
2023/01/23 06:31:05;;;;;;;45.92;19.67;;;;;;;0.90;100.00;102262.02;1698495;84;26297;-45
2023/01/23 06:33:33;;;;;;;42.67;18.77;;;;;;;0.91;100.00;102269.50;1698501;84;25596;-44
2023/01/23 06:36:04;;;;;;;44.30;21.12;;;;;;;0.90;100.00;102270.02;1698497;84;27334;-47
2023/01/23 06:38:30;;;;;;;44.70;19.80;;;;;;;0.90;100.00;102279.34;1698537;84;25454;-46
2023/01/23 06:40:57;;;;;;;47.05;19.48;;;;;;;0.90;100.00;102290.00;1698103;84;25563;-45
2023/01/23 06:43:27;;;;;;;49.73;19.80;;;;;;;0.90;100.00;102292.66;1676190;84;26196;-45
2023/01/23 06:45:53;;;;;;;45.25;19.60;;;;;;;0.90;100.00;102299.81;1698647;84;25415;-45
2023/01/23 06:48:20;;;;;;;47.13;20.65;;;;;;;0.91;100.00;102302.80;1698484;84;27390;-45
2023/01/23 06:50:47;;;;;;;44.18;19.90;;;;;;;0.91;100.00;102308.14;1698354;84;25611;-45
2023/01/23 06:53:16;;;;;;;42.80;19.92;;;;;;;0.92;100.00;102311.94;1698428;84;25625;-45
2023/01/23 06:55:43;;;;;;;54.33;22.90;;;;;;;0.93;100.00;102312.75;1676179;84;25698;-46
2023/01/23 06:58:11;;;;;;;46.90;22.60;;;;;;;0.94;100.00;102317.08;1698528;84;25606;-46
2023/01/23 07:00:38;;;;;;;45.95;19.65;;;;;;;0.96;100.00;102312.89;1698427;84;27280;-46
2023/01/23 07:03:05;;;;;;;48.35;20.30;;;;;;;0.95;100.00;102310.71;1698370;84;25455;-45
2023/01/23 07:05:39;;;;;;;44.23;20.75;;;;;;;0.96;100.00;102312.89;1698630;84;25632;-44
2023/01/23 07:08:07;;;;;;;54.63;22.02;;;;;;;0.97;100.00;102314.52;1698563;84;25686;-46
2023/01/23 07:10:40;;;;;;;44.48;20.30;;;;;;;0.98;100.00;102315.66;1698639;84;25406;-46
2023/01/23 07:13:10;;;;;;;48.13;21.52;;;;;;;0.99;100.00;102317.31;1676217;84;27667;-46
2023/01/23 07:15:38;;;;;;;43.42;18.92;;;;;;;1.00;100.00;102316.28;1698599;84;25557;-46
2023/01/23 07:18:04;;;;;;;42.40;20.08;;;;;;;1.00;100.00;102312.28;1698552;84;25624;-44
2023/01/23 07:20:31;;;;;;;47.27;21.27;;;;;;;1.00;100.00;102320.27;1671499;85;25704;-43
2023/01/23 07:22:59;;;;;;;48.30;21.48;;;;;;;1.01;100.00;102323.27;1689019;84;25491;-45
2023/01/23 07:25:25;;;;;;;45.52;21.35;;;;;;;1.03;100.00;102321.74;1666690;85;27524;-46
2023/01/23 07:27:51;;;;;;;47.27;21.07;;;;;;;1.03;100.00;102332.41;1688785;85;25547;-46
2023/01/23 07:30:20;;;;;;;53.75;20.90;;;;;;;1.03;100.00;102338.55;1688840;85;25683;-45
2023/01/23 07:32:46;;;;;;;49.23;22.73;;;;;;;1.04;100.00;102340.69;1640178;85;26372;-46
2023/01/23 07:35:13;;;;;;;49.35;20.62;;;;;;;1.04;100.00;102338.03;1688893;84;25485;-46
2023/01/23 07:37:39;;;;;;;47.27;21.23;;;;;;;1.05;100.00;102337.84;1688797;85;27379;-46
2023/01/23 07:40:09;;;;;;;52.33;22.62;;;;;;;1.05;100.00;102335.17;1688694;85;25639;-45
2023/01/23 07:42:36;;;;;;;45.70;19.75;;;;;;;1.07;100.00;102335.83;1667509;85;25751;-47
2023/01/23 07:45:03;;;;;;;42.65;20.10;;;;;;;1.07;100.00;102336.31;1688604;85;25765;-45
2023/01/23 07:47:29;;;;;;;49.63;22.65;;;;;;;1.07;100.00;102331.83;1667162;85;25468;-45
2023/01/23 07:49:55;;;;;;;49.77;21.25;;;;;;;1.09;100.00;102335.11;1688822;85;27420;-46
2023/01/23 07:52:23;;;;;;;41.85;19.40;;;;;;;1.10;100.00;102334.08;1688756;84;25488;-46
2023/01/23 07:54:49;;;;;;;41.28;21.73;;;;;;;1.12;100.00;102336.55;1688836;85;25449;-44
2023/01/23 07:57:15;;;;;;;43.20;20.23;;;;;;;1.13;100.00;102338.21;1688848;84;25617;-44
2023/01/23 07:59:41;;;;;;;46.25;21.02;;;;;;;1.13;100.00;102343.54;1688850;85;25630;-46
2023/01/23 08:02:10;;;;;;;48.17;21.33;;;;;;;1.14;100.00;102341.69;1688795;84;27295;-46
2023/01/23 08:04:37;;;;;;;47.65;21.00;;;;;;;1.13;100.00;102348.06;1688870;85;25387;-47
2023/01/23 08:07:03;;;;;;;45.23;20.62;;;;;;;1.15;100.00;102350.83;1666851;85;25665;-45
2023/01/23 08:09:29;;;;;;;57.90;21.90;;;;;;;1.14;100.00;102351.02;1666982;85;25765;-44
2023/01/23 08:11:55;;;;;;;58.92;22.22;;;;;;;1.15;100.00;102348.16;1688893;85;25461;-44
2023/01/23 08:14:22;;;;;;;47.10;21.93;;;;;;;1.18;100.00;102348.30;1688786;85;29528;-45
2023/01/23 08:16:50;;;;;;;47.35;20.80;;;;;;;1.19;100.00;102349.44;1688843;84;25404;-44
2023/01/23 08:19:17;;;;;;;48.08;20.43;;;;;;;1.21;100.00;102354.55;1688816;84;25409;-45
2023/01/23 08:21:45;;;;;;;45.58;20.43;;;;;;;1.18;100.00;102353.11;1696003;84;25689;-48
2023/01/23 08:24:12;;;;;;;42.67;20.65;;;;;;;1.19;100.00;102352.09;1697348;84;25565;-45
2023/01/23 08:26:40;;;;;;;48.45;23.35;;;;;;;1.24;100.00;102351.48;1697304;84;27413;-45
2023/01/23 08:29:07;;;;;;;52.17;21.05;;;;;;;1.25;100.00;102359.30;1697259;84;25572;-46
2023/01/23 08:31:34;;;;;;;45.20;20.85;;;;;;;1.27;100.00;102363.11;1697340;84;25596;-44
2023/01/23 08:34:01;;;;;;;44.55;21.27;;;;;;;1.27;100.00;102363.11;1697277;84;26258;-44
2023/01/23 08:36:28;;;;;;;41.20;20.08;;;;;;;1.29;100.00;102363.73;1671125;84;25442;-46
2023/01/23 08:38:55;;;;;;;56.60;22.50;;;;;;;1.32;100.00;102365.19;1697308;84;27924;-46
2023/01/23 08:41:22;;;;;;;43.35;18.57;;;;;;;1.33;100.00;102366.33;1697196;84;25459;-46
2023/01/23 08:43:50;;;;;;;44.45;19.00;;;;;;;1.32;100.00;102375.34;1671129;84;25614;-45
2023/01/23 08:46:17;;;;;;;40.90;19.15;;;;;;;1.31;100.00;102373.68;1671089;84;25805;-46
2023/01/23 08:48:43;;;;;;;46.83;20.32;;;;;;;1.33;100.00;102376.15;1697351;84;25384;-46
2023/01/23 08:51:13;;;;;;;41.25;20.17;;;;;;;1.34;100.00;102385.81;1697286;84;27366;-46
2023/01/23 08:53:41;;;;;;;42.48;20.75;;;;;;;1.36;100.00;102385.10;1697205;84;25917;-43
2023/01/23 08:56:17;;;;;;;44.90;19.92;;;;;;;1.38;100.00;102389.72;1671296;84;25613;-45
2023/01/23 08:58:44;;;;;;;46.48;21.00;;;;;;;1.39;100.00;102393.53;1697306;84;25795;-46
2023/01/23 09:01:15;;;;;;;50.28;21.30;;;;;;;1.41;100.00;102392.00;1697278;84;25399;-45
2023/01/23 09:03:41;;;;;;;46.23;20.57;;;;;;;1.45;100.00;102394.61;1696999;84;27275;-46
2023/01/23 09:06:10;;;;;;;45.23;20.88;;;;;;;1.47;100.00;102398.71;1697209;84;25452;-46
2023/01/23 09:08:37;;;;;;;51.40;21.90;;;;;;;1.52;100.00;102395.46;1697413;84;25617;-46
2023/01/23 09:11:06;;;;;;;45.25;21.77;;;;;;;1.52;100.00;102387.98;1697194;84;25684;-45
2023/01/23 09:13:33;;;;;;;41.30;20.88;;;;;;;1.54;100.00;102389.94;1697082;84;25570;-45
2023/01/23 09:16:00;;;;;;;48.87;22.52;;;;;;;1.57;100.00;102392.21;1697240;84;27334;-45
2023/01/23 09:18:27;;;;;;;45.10;22.52;;;;;;;1.57;100.00;102393.03;1696696;84;25568;-46
2023/01/23 09:20:54;;;;;;;56.70;23.30;;;;;;;1.60;100.00;102385.13;1697127;84;25720;-45
2023/01/23 09:23:21;;;;;;;48.05;22.48;;;;;;;1.61;100.00;102390.78;1699592;84;25747;-46
2023/01/23 09:25:48;;;;;;;44.67;22.15;;;;;;;1.62;100.00;102394.59;1699795;83;25674;-46
2023/01/23 09:28:14;;;;;;;44.38;22.75;;;;;;;1.64;100.00;102393.06;1700275;84;27475;-45
2023/01/23 09:30:41;;;;;;;42.65;21.30;;;;;;;1.66;100.00;102391.02;1700920;84;25605;-46
2023/01/23 09:33:08;;;;;;;48.63;20.92;;;;;;;1.68;100.00;102386.30;1701142;84;25414;-45
2023/01/23 09:35:36;;;;;;;45.07;21.40;;;;;;;1.69;100.00;102390.62;1694292;84;25355;-47
2023/01/23 09:38:06;;;;;;;44.70;19.10;;;;;;;1.71;100.00;102387.25;1694187;84;25702;-46
2023/01/23 09:40:47;;;;;;;42.95;20.08;;;;;;;1.73;100.00;102382.52;1728732;83;27378;-45
2023/01/23 09:43:30;;;;;;;48.83;22.52;;;;;;;1.73;100.00;102375.05;1728698;83;25646;-48
2023/01/23 09:46:08;;;;;;;42.78;19.80;;;;;;;1.72;100.00;102378.23;1728112;83;25539;-45
2023/01/23 09:49:11;;;;;;;37.80;18.75;;;;;;;1.73;100.00;102374.52;1726462;83;25721;-45
2023/01/23 09:51:49;;;;;;;40.92;18.52;;;;;;;1.76;100.00;102378.13;1728836;83;25674;-45
2023/01/23 09:54:47;;;;;;;42.55;20.52;;;;;;;1.79;100.00;102379.08;1727922;83;28126;-45
2023/01/23 09:57:23;;;;;;;40.25;19.57;;;;;;;1.82;100.00;102374.68;1728722;83;25655;-45
2023/01/23 10:00:04;;;;;;;42.75;19.75;;;;;;;1.86;100.00;102367.91;1728875;83;25618;-45
2023/01/23 10:02:30;;;;;;;42.78;21.10;;;;;;;1.85;100.00;102371.59;1706956;83;26776;-47
2023/01/23 10:05:01;;;;;;;43.83;20.90;;;;;;;1.90;100.00;102371.52;1728812;83;25560;-45
2023/01/23 10:07:59;;;;;;;42.10;20.45;;;;;;;1.90;100.00;102371.52;1747885;81;27440;-44
2023/01/23 10:11:01;;;;;;;48.68;21.73;;;;;;;1.93;100.00;102372.45;1751647;81;25612;-45
2023/01/23 10:13:54;;;;;;;46.80;22.35;;;;;;;1.94;100.00;102371.42;1751513;81;25555;-45
2023/01/23 10:16:55;;;;;;;48.23;21.75;;;;;;;1.93;100.00;102369.27;1751526;81;25680;-44
2023/01/23 10:19:39;;;;;;;43.58;20.75;;;;;;;1.94;100.00;102374.09;1751803;81;25404;-46
2023/01/23 10:22:16;;;;;;;48.10;23.77;;;;;;;1.94;100.00;102380.76;1751295;81;27330;-45
2023/01/23 10:24:57;;;;;;;46.15;22.85;;;;;;;1.94;100.00;102376.27;1751536;81;25425;-44
2023/01/23 10:27:32;;;;;;;50.58;23.20;;;;;;;1.94;100.00;102374.94;1751625;81;25492;-46
2023/01/23 10:30:21;;;;;;;46.23;21.48;;;;;;;1.96;100.00;102374.70;1750790;81;25617;-44
2023/01/23 10:33:15;;;;;;;49.17;22.33;;;;;;;1.96;100.00;102377.38;1752009;81;25764;-45
2023/01/23 10:35:52;;;;;;;45.65;20.68;;;;;;;1.95;100.00;102376.56;1729387;81;27526;-47
2023/01/23 10:38:36;;;;;;;47.62;23.02;;;;;;;1.96;100.00;102371.55;1750159;81;25297;-46
2023/01/23 10:41:13;;;;;;;45.50;22.32;;;;;;;1.97;100.00;102373.17;1751280;81;25398;-45
2023/01/23 10:43:46;;;;;;;48.52;23.12;;;;;;;2.00;100.00;102369.30;1751682;81;26338;-45
2023/01/23 10:46:29;;;;;;;49.42;22.55;;;;;;;2.01;100.00;102366.92;1751881;81;25617;-45
2023/01/23 10:49:00;;;;;;;49.13;22.42;;;;;;;2.02;100.00;102367.24;1751743;81;27389;-44
2023/01/23 10:51:47;;;;;;;46.75;22.15;;;;;;;2.02;100.00;102370.72;1751699;81;25647;-45
2023/01/23 10:54:24;;;;;;;44.98;21.97;;;;;;;2.04;100.00;102362.03;1751867;81;25425;-47
2023/01/23 10:57:06;;;;;;;44.20;21.70;;;;;;;2.10;100.00;102362.25;1751749;81;26178;-48
2023/01/23 10:59:59;;;;;;;42.30;20.90;;;;;;;2.10;100.00;102363.06;1749636;81;25410;-50
2023/01/23 11:02:32;;;;;;;47.80;22.77;;;;;;;2.13;100.00;102365.83;1751757;81;27351;-49
2023/01/23 11:05:00;;;;;;;46.83;22.65;;;;;;;2.14;100.00;102362.14;1751683;81;25702;-50
2023/01/23 11:07:34;;;;;;;43.98;21.97;;;;;;;2.13;100.00;102361.81;1750348;81;25753;-46
2023/01/23 11:10:15;;;;;;;54.73;24.80;;;;;;;2.12;100.00;102364.20;1750455;81;25784;-45
2023/01/23 11:12:52;;;;;;;49.10;22.82;;;;;;;2.12;100.00;102364.20;1751260;81;25592;-45
2023/01/23 11:15:28;;;;;;;47.98;22.98;;;;;;;2.13;100.00;102362.66;1751762;81;27374;-46
2023/01/23 11:17:58;;;;;;;43.23;22.40;;;;;;;2.14;100.00;102360.28;1751662;81;25563;-44
2023/01/23 11:20:32;;;;;;;46.37;24.52;;;;;;;2.15;100.00;102361.94;1751873;81;25603;-45
2023/01/23 11:23:17;;;;;;;45.10;23.52;;;;;;;2.17;100.00;102363.89;1725324;82;25580;-45
2023/01/23 11:25:50;;;;;;;45.17;21.40;;;;;;;2.16;100.00;102362.76;1746695;81;25382;-45
2023/01/23 11:28:29;;;;;;;50.38;26.45;;;;;;;2.17;100.00;102365.23;1745732;82;27930;-45
2023/01/23 11:31:08;;;;;;;48.50;23.47;;;;;;;2.18;100.00;102361.55;1746587;82;25512;-47
2023/01/23 11:34:01;;;;;;;45.10;22.45;;;;;;;2.20;100.00;102366.16;1746546;82;25645;-45
2023/01/23 11:36:57;;;;;;;46.40;23.67;;;;;;;2.22;100.00;102368.64;1746674;82;25696;-45
2023/01/23 11:39:44;;;;;;;41.28;22.82;;;;;;;2.26;100.00;102363.71;1746722;81;25558;-43
2023/01/23 11:42:12;;;;;;;43.73;23.70;;;;;;;2.23;100.00;102356.91;1746346;82;28155;-44